Portada
METAR-TAF:

METAR-TAF

Aeroports :

Labuan, Malàisia

latitud: 05-18N, longitud: 115-15E, altitud: 30 m

Observació

L'informe es va fer fa 1 hora i 3 minuts, a les 23:00 UTC
Vent calma
Temperatura 25°C
Humitat 94%
Pressió 1013 hPa
Visibilitat 10 km o més
Escasses núvols a una alçada de 1300 ft
Cel ennuvolat a una alçada de 30000 ft

METAR: WBKL 202300Z 00000KT 9999 FEW013 BKN300 25/24 Q1013

Hora: 08:03 (00:03 UTC)

Pronòstic

L'informe es va fer fa 1 hora i 3 minuts, a les 23:00 UTC
Pronòstic vàlid del 21 a les 00 UTC al 22 a les 00 UTC
Vent 5 kt del Nord-Est
Visibilitat 10 km o més
Escasses núvols a una alçada de 1500 ft

TAF: WBKL 202300Z 2100/2200 05005KT 9999 FEW015

Observacions i pronòstics meteorològics de més de 4000 aeroports (METAR i TAF).

Les estacions disponibles són els punts grocs i vermells al mapa.

Posi el ratolí al punt desitjat per veure el nom de l'estació.

Feu clic per veure les observacions i els pronòstics meteorològics.

Per canviar el mapa: feu clic els botons verds amb una creu de color negre per apropar; al botó verd amb un guió per allunyar la imatge; o en les fletxes verdes per a mapes adjacents.


METAR-TAF: